sensor_id;sensor_type;location;lat;lon;timestamp;P1;durP1;ratioP1;P2;durP2;ratioP2
40533;SDS011;26233;51.894;10.192;2023-06-22T00:01:44;6.05;;;5.55;;
40533;SDS011;26233;51.894;10.192;2023-06-22T00:04:13;5.75;;;5.25;;
40533;SDS011;26233;51.894;10.192;2023-06-22T00:06:40;5.57;;;5.18;;
40533;SDS011;26233;51.894;10.192;2023-06-22T00:09:07;5.47;;;5.07;;
40533;SDS011;26233;51.894;10.192;2023-06-22T00:11:35;5.80;;;5.40;;
40533;SDS011;26233;51.894;10.192;2023-06-22T00:14:02;5.70;;;5.30;;
40533;SDS011;26233;51.894;10.192;2023-06-22T00:16:30;5.70;;;5.30;;
40533;SDS011;26233;51.894;10.192;2023-06-22T00:18:58;5.70;;;5.30;;
40533;SDS011;26233;51.894;10.192;2023-06-22T00:21:28;5.63;;;5.22;;
40533;SDS011;26233;51.894;10.192;2023-06-22T00:23:55;5.80;;;5.40;;
40533;SDS011;26233;51.894;10.192;2023-06-22T00:26:23;5.70;;;5.30;;
40533;SDS011;26233;51.894;10.192;2023-06-22T00:28:50;5.95;;;5.55;;
40533;SDS011;26233;51.894;10.192;2023-06-22T00:31:17;5.35;;;4.95;;
40533;SDS011;26233;51.894;10.192;2023-06-22T00:33:44;5.95;;;5.47;;
40533;SDS011;26233;51.894;10.192;2023-06-22T00:36:11;6.43;;;5.82;;
40533;SDS011;26233;51.894;10.192;2023-06-22T00:38:42;5.80;;;5.40;;
40533;SDS011;26233;51.894;10.192;2023-06-22T00:41:09;5.80;;;5.40;;
40533;SDS011;26233;51.894;10.192;2023-06-22T00:43:36;5.75;;;5.35;;
40533;SDS011;26233;51.894;10.192;2023-06-22T00:46:03;5.85;;;5.45;;
40533;SDS011;26233;51.894;10.192;2023-06-22T00:48:30;5.70;;;5.20;;
40533;SDS011;26233;51.894;10.192;2023-06-22T00:50:57;6.20;;;5.70;;
40533;SDS011;26233;51.894;10.192;2023-06-22T00:53:25;6.15;;;5.70;;
40533;SDS011;26233;51.894;10.192;2023-06-22T00:55:53;5.50;;;5.10;;
40533;SDS011;26233;51.894;10.192;2023-06-22T00:58:25;5.60;;;5.20;;
40533;SDS011;26233;51.894;10.192;2023-06-22T01:00:52;5.30;;;4.95;;
40533;SDS011;26233;51.894;10.192;2023-06-22T01:03:19;5.55;;;5.15;;
40533;SDS011;26233;51.894;10.192;2023-06-22T01:05:46;5.30;;;4.90;;
40533;SDS011;26233;51.894;10.192;2023-06-22T01:08:19;6.32;;;5.82;;
40533;SDS011;26233;51.894;10.192;2023-06-22T01:10:57;5.43;;;5.13;;
40533;SDS011;26233;51.894;10.192;2023-06-22T01:13:32;6.05;;;5.60;;
40533;SDS011;26233;51.894;10.192;2023-06-22T01:16:09;5.97;;;5.57;;
40533;SDS011;26233;51.894;10.192;2023-06-22T01:18:42;6.75;;;5.60;;
40533;SDS011;26233;51.894;10.192;2023-06-22T01:21:12;5.68;;;5.28;;
40533;SDS011;26233;51.894;10.192;2023-06-22T01:23:50;5.43;;;5.00;;
40533;SDS011;26233;51.894;10.192;2023-06-22T01:26:33;5.95;;;5.47;;
40533;SDS011;26233;51.894;10.192;2023-06-22T01:29:08;5.70;;;5.20;;
40533;SDS011;26233;51.894;10.192;2023-06-22T01:31:39;5.38;;;4.97;;
40533;SDS011;26233;51.894;10.192;2023-06-22T01:34:07;5.80;;;5.40;;
40533;SDS011;26233;51.894;10.192;2023-06-22T01:36:36;6.00;;;5.60;;
40533;SDS011;26233;51.894;10.192;2023-06-22T01:39:05;5.40;;;5.10;;
40533;SDS011;26233;51.894;10.192;2023-06-22T01:41:34;5.30;;;4.90;;
40533;SDS011;26233;51.894;10.192;2023-06-22T01:44:04;5.78;;;5.38;;
40533;SDS011;26233;51.894;10.192;2023-06-22T01:46:33;5.57;;;5.13;;
40533;SDS011;26233;51.894;10.192;2023-06-22T01:49:01;5.68;;;5.28;;
40533;SDS011;26233;51.894;10.192;2023-06-22T01:51:29;5.55;;;5.10;;
40533;SDS011;26233;51.894;10.192;2023-06-22T01:53:56;6.07;;;5.57;;
40533;SDS011;26233;51.894;10.192;2023-06-22T01:56:23;5.95;;;5.50;;
40533;SDS011;26233;51.894;10.192;2023-06-22T01:59:03;5.47;;;5.07;;
40533;SDS011;26233;51.894;10.192;2023-06-22T02:01:41;5.95;;;5.53;;
40533;SDS011;26233;51.894;10.192;2023-06-22T02:04:12;5.53;;;5.13;;
40533;SDS011;26233;51.894;10.192;2023-06-22T02:06:45;6.05;;;5.57;;
40533;SDS011;26233;51.894;10.192;2023-06-22T02:09:16;5.45;;;5.05;;
40533;SDS011;26233;51.894;10.192;2023-06-22T02:11:46;6.00;;;5.50;;
40533;SDS011;26233;51.894;10.192;2023-06-22T02:14:15;5.90;;;5.50;;
40533;SDS011;26233;51.894;10.192;2023-06-22T02:16:42;6.35;;;5.88;;
40533;SDS011;26233;51.894;10.192;2023-06-22T02:19:10;5.80;;;5.40;;
40533;SDS011;26233;51.894;10.192;2023-06-22T02:21:37;6.25;;;5.72;;
40533;SDS011;26233;51.894;10.192;2023-06-22T02:24:07;5.72;;;5.32;;
40533;SDS011;26233;51.894;10.192;2023-06-22T02:26:34;6.20;;;5.65;;
40533;SDS011;26233;51.894;10.192;2023-06-22T02:29:03;6.03;;;5.53;;
40533;SDS011;26233;51.894;10.192;2023-06-22T02:31:31;5.93;;;5.38;;
40533;SDS011;26233;51.894;10.192;2023-06-22T02:33:59;5.55;;;5.15;;
40533;SDS011;26233;51.894;10.192;2023-06-22T02:36:26;5.63;;;5.22;;
40533;SDS011;26233;51.894;10.192;2023-06-22T02:38:55;6.10;;;5.60;;
40533;SDS011;26233;51.894;10.192;2023-06-22T02:41:26;5.80;;;5.40;;
40533;SDS011;26233;51.894;10.192;2023-06-22T02:43:53;5.90;;;5.50;;
40533;SDS011;26233;51.894;10.192;2023-06-22T02:46:20;5.68;;;5.28;;
40533;SDS011;26233;51.894;10.192;2023-06-22T02:48:48;5.88;;;5.47;;
40533;SDS011;26233;51.894;10.192;2023-06-22T02:51:15;5.80;;;5.40;;
40533;SDS011;26233;51.894;10.192;2023-06-22T02:53:42;5.90;;;5.50;;
40533;SDS011;26233;51.894;10.192;2023-06-22T02:56:10;5.72;;;5.32;;
40533;SDS011;26233;51.894;10.192;2023-06-22T02:58:38;5.28;;;4.88;;
40533;SDS011;26233;51.894;10.192;2023-06-22T03:01:05;5.50;;;5.10;;
40533;SDS011;26233;51.894;10.192;2023-06-22T03:03:32;5.93;;;5.53;;
40533;SDS011;26233;51.894;10.192;2023-06-22T03:06:01;5.28;;;4.88;;
40533;SDS011;26233;51.894;10.192;2023-06-22T03:08:28;5.85;;;5.45;;
40533;SDS011;26233;51.894;10.192;2023-06-22T03:10:55;5.43;;;5.03;;
40533;SDS011;26233;51.894;10.192;2023-06-22T03:13:22;5.88;;;5.47;;
40533;SDS011;26233;51.894;10.192;2023-06-22T03:15:50;5.82;;;5.43;;
40533;SDS011;26233;51.894;10.192;2023-06-22T03:18:17;6.20;;;5.80;;
40533;SDS011;26233;51.894;10.192;2023-06-22T03:20:47;5.78;;;5.38;;
40533;SDS011;26233;51.894;10.192;2023-06-22T03:23:15;5.78;;;5.38;;
40533;SDS011;26233;51.894;10.192;2023-06-22T03:25:42;5.68;;;5.28;;
40533;SDS011;26233;51.894;10.192;2023-06-22T03:28:10;5.75;;;5.35;;
40533;SDS011;26233;51.894;10.192;2023-06-22T03:30:37;6.07;;;5.68;;
40533;SDS011;26233;51.894;10.192;2023-06-22T03:33:04;5.80;;;5.40;;
40533;SDS011;26233;51.894;10.192;2023-06-22T03:35:33;5.65;;;5.25;;
40533;SDS011;26233;51.894;10.192;2023-06-22T03:38:00;6.40;;;5.88;;
40533;SDS011;26233;51.894;10.192;2023-06-22T03:40:28;6.22;;;5.78;;
40533;SDS011;26233;51.894;10.192;2023-06-22T03:42:55;6.10;;;5.60;;
40533;SDS011;26233;51.894;10.192;2023-06-22T03:45:22;6.30;;;5.80;;
40533;SDS011;26233;51.894;10.192;2023-06-22T03:47:49;5.97;;;5.47;;
40533;SDS011;26233;51.894;10.192;2023-06-22T03:50:16;6.35;;;5.85;;
40533;SDS011;26233;51.894;10.192;2023-06-22T03:52:45;6.70;;;6.10;;
40533;SDS011;26233;51.894;10.192;2023-06-22T03:55:12;6.15;;;5.65;;
40533;SDS011;26233;51.894;10.192;2023-06-22T03:57:40;6.70;;;6.10;;
40533;SDS011;26233;51.894;10.192;2023-06-22T04:00:08;6.25;;;5.68;;
40533;SDS011;26233;51.894;10.192;2023-06-22T04:02:36;6.57;;;5.97;;
40533;SDS011;26233;51.894;10.192;2023-06-22T04:05:03;6.28;;;5.78;;
40533;SDS011;26233;51.894;10.192;2023-06-22T04:07:31;6.55;;;6.05;;
40533;SDS011;26233;51.894;10.192;2023-06-22T04:09:58;6.18;;;5.68;;
40533;SDS011;26233;51.894;10.192;2023-06-22T04:12:25;5.90;;;5.50;;
40533;SDS011;26233;51.894;10.192;2023-06-22T04:14:53;6.45;;;5.95;;
40533;SDS011;26233;51.894;10.192;2023-06-22T04:17:20;6.55;;;6.05;;
40533;SDS011;26233;51.894;10.192;2023-06-22T04:19:50;6.43;;;5.93;;
40533;SDS011;26233;51.894;10.192;2023-06-22T04:22:17;6.85;;;6.30;;
40533;SDS011;26233;51.894;10.192;2023-06-22T04:24:44;6.85;;;6.35;;
40533;SDS011;26233;51.894;10.192;2023-06-22T04:27:11;6.35;;;5.85;;
40533;SDS011;26233;51.894;10.192;2023-06-22T04:29:38;6.32;;;5.78;;
40533;SDS011;26233;51.894;10.192;2023-06-22T04:32:15;6.15;;;5.72;;
40533;SDS011;26233;51.894;10.192;2023-06-22T04:34:42;6.40;;;5.90;;
40533;SDS011;26233;51.894;10.192;2023-06-22T04:37:09;6.75;;;6.25;;
40533;SDS011;26233;51.894;10.192;2023-06-22T04:39:40;6.03;;;5.63;;
40533;SDS011;26233;51.894;10.192;2023-06-22T04:42:08;6.35;;;5.78;;
40533;SDS011;26233;51.894;10.192;2023-06-22T04:44:35;5.97;;;5.57;;
40533;SDS011;26233;51.894;10.192;2023-06-22T04:47:02;6.80;;;6.30;;
40533;SDS011;26233;51.894;10.192;2023-06-22T04:49:34;5.97;;;5.57;;
40533;SDS011;26233;51.894;10.192;2023-06-22T04:52:03;6.80;;;6.30;;
40533;SDS011;26233;51.894;10.192;2023-06-22T04:54:32;6.72;;;6.22;;
40533;SDS011;26233;51.894;10.192;2023-06-22T04:56:59;6.60;;;6.18;;
40533;SDS011;26233;51.894;10.192;2023-06-22T04:59:27;6.68;;;6.18;;
40533;SDS011;26233;51.894;10.192;2023-06-22T05:01:55;6.32;;;5.88;;
40533;SDS011;26233;51.894;10.192;2023-06-22T05:04:23;6.43;;;5.93;;
40533;SDS011;26233;51.894;10.192;2023-06-22T05:06:53;6.68;;;6.15;;
40533;SDS011;26233;51.894;10.192;2023-06-22T05:09:21;7.47;;;6.80;;
40533;SDS011;26233;51.894;10.192;2023-06-22T05:11:48;6.90;;;6.40;;
40533;SDS011;26233;51.894;10.192;2023-06-22T05:14:15;6.75;;;6.25;;
40533;SDS011;26233;51.894;10.192;2023-06-22T05:16:43;6.70;;;6.10;;
40533;SDS011;26233;51.894;10.192;2023-06-22T05:19:11;6.57;;;6.07;;
40533;SDS011;26233;51.894;10.192;2023-06-22T05:21:38;6.65;;;6.15;;
40533;SDS011;26233;51.894;10.192;2023-06-22T05:24:07;6.43;;;6.03;;
40533;SDS011;26233;51.894;10.192;2023-06-22T05:26:34;6.65;;;6.10;;
40533;SDS011;26233;51.894;10.192;2023-06-22T05:29:02;6.75;;;6.15;;
40533;SDS011;26233;51.894;10.192;2023-06-22T05:31:29;7.30;;;6.70;;
40533;SDS011;26233;51.894;10.192;2023-06-22T05:33:56;7.03;;;6.53;;
40533;SDS011;26233;51.894;10.192;2023-06-22T05:36:24;6.72;;;6.22;;
40533;SDS011;26233;51.894;10.192;2023-06-22T05:38:56;6.25;;;5.85;;
40533;SDS011;26233;51.894;10.192;2023-06-22T05:41:25;6.57;;;6.07;;
40533;SDS011;26233;51.894;10.192;2023-06-22T05:43:52;7.15;;;6.63;;
40533;SDS011;26233;51.894;10.192;2023-06-22T05:46:19;6.72;;;6.20;;
40533;SDS011;26233;51.894;10.192;2023-06-22T05:48:46;7.28;;;6.70;;
40533;SDS011;26233;51.894;10.192;2023-06-22T05:51:13;7.28;;;6.68;;
40533;SDS011;26233;51.894;10.192;2023-06-22T05:53:40;7.10;;;6.60;;
40533;SDS011;26233;51.894;10.192;2023-06-22T05:56:07;7.78;;;7.18;;
40533;SDS011;26233;51.894;10.192;2023-06-22T05:58:36;7.28;;;6.78;;
40533;SDS011;26233;51.894;10.192;2023-06-22T06:01:03;7.30;;;6.75;;
40533;SDS011;26233;51.894;10.192;2023-06-22T06:03:30;7.50;;;6.80;;
40533;SDS011;26233;51.894;10.192;2023-06-22T06:05:57;7.78;;;7.18;;
40533;SDS011;26233;51.894;10.192;2023-06-22T06:08:24;6.75;;;6.25;;
40533;SDS011;26233;51.894;10.192;2023-06-22T06:10:51;7.40;;;6.90;;
40533;SDS011;26233;51.894;10.192;2023-06-22T06:13:20;6.88;;;6.38;;
40533;SDS011;26233;51.894;10.192;2023-06-22T06:15:48;7.38;;;6.78;;
40533;SDS011;26233;51.894;10.192;2023-06-22T06:18:16;6.68;;;6.20;;
40533;SDS011;26233;51.894;10.192;2023-06-22T06:20:43;6.97;;;6.47;;
40533;SDS011;26233;51.894;10.192;2023-06-22T06:23:10;7.78;;;7.15;;
40533;SDS011;26233;51.894;10.192;2023-06-22T06:25:37;7.50;;;6.95;;
40533;SDS011;26233;51.894;10.192;2023-06-22T06:28:04;7.90;;;7.30;;
40533;SDS011;26233;51.894;10.192;2023-06-22T06:30:31;7.93;;;7.32;;
40533;SDS011;26233;51.894;10.192;2023-06-22T06:33:00;7.78;;;7.18;;
40533;SDS011;26233;51.894;10.192;2023-06-22T06:35:26;7.35;;;6.80;;
40533;SDS011;26233;51.894;10.192;2023-06-22T06:37:54;7.35;;;6.85;;
40533;SDS011;26233;51.894;10.192;2023-06-22T06:40:21;8.02;;;7.40;;
40533;SDS011;26233;51.894;10.192;2023-06-22T06:42:48;7.55;;;6.95;;
40533;SDS011;26233;51.894;10.192;2023-06-22T06:45:16;8.10;;;7.40;;
40533;SDS011;26233;51.894;10.192;2023-06-22T06:47:50;8.02;;;7.43;;
40533;SDS011;26233;51.894;10.192;2023-06-22T06:50:19;8.05;;;7.35;;
40533;SDS011;26233;51.894;10.192;2023-06-22T06:52:47;8.23;;;7.63;;
40533;SDS011;26233;51.894;10.192;2023-06-22T06:55:15;7.78;;;7.18;;
40533;SDS011;26233;51.894;10.192;2023-06-22T06:57:42;7.80;;;7.10;;
40533;SDS011;26233;51.894;10.192;2023-06-22T07:00:13;8.00;;;7.38;;
40533;SDS011;26233;51.894;10.192;2023-06-22T07:02:41;8.15;;;7.40;;
40533;SDS011;26233;51.894;10.192;2023-06-22T07:05:10;8.10;;;7.40;;
40533;SDS011;26233;51.894;10.192;2023-06-22T07:07:39;8.05;;;7.45;;
40533;SDS011;26233;51.894;10.192;2023-06-22T07:10:07;8.90;;;8.10;;
40533;SDS011;26233;51.894;10.192;2023-06-22T07:12:35;8.43;;;7.78;;
40533;SDS011;26233;51.894;10.192;2023-06-22T07:15:03;8.20;;;7.60;;
40533;SDS011;26233;51.894;10.192;2023-06-22T07:17:33;8.25;;;7.65;;
40533;SDS011;26233;51.894;10.192;2023-06-22T07:20:00;8.30;;;7.70;;
40533;SDS011;26233;51.894;10.192;2023-06-22T07:22:29;8.02;;;7.43;;
40533;SDS011;26233;51.894;10.192;2023-06-22T07:24:57;8.05;;;7.35;;
40533;SDS011;26233;51.894;10.192;2023-06-22T07:27:24;8.45;;;7.75;;
40533;SDS011;26233;51.894;10.192;2023-06-22T07:29:51;7.85;;;7.25;;
40533;SDS011;26233;51.894;10.192;2023-06-22T07:32:20;8.63;;;7.88;;
40533;SDS011;26233;51.894;10.192;2023-06-22T07:34:47;8.23;;;7.60;;
40533;SDS011;26233;51.894;10.192;2023-06-22T07:37:14;7.32;;;6.72;;
40533;SDS011;26233;51.894;10.192;2023-06-22T07:39:41;8.13;;;7.53;;
40533;SDS011;26233;51.894;10.192;2023-06-22T07:42:09;8.90;;;8.10;;
40533;SDS011;26233;51.894;10.192;2023-06-22T07:44:36;7.78;;;7.28;;
40533;SDS011;26233;51.894;10.192;2023-06-22T07:47:03;8.02;;;7.43;;
40533;SDS011;26233;51.894;10.192;2023-06-22T07:49:31;8.07;;;7.28;;
40533;SDS011;26233;51.894;10.192;2023-06-22T07:51:58;8.57;;;7.72;;
40533;SDS011;26233;51.894;10.192;2023-06-22T07:54:26;8.18;;;7.47;;
40533;SDS011;26233;51.894;10.192;2023-06-22T07:56:53;7.90;;;7.30;;
40533;SDS011;26233;51.894;10.192;2023-06-22T07:59:21;8.38;;;7.63;;
40533;SDS011;26233;51.894;10.192;2023-06-22T08:01:48;8.23;;;7.63;;
40533;SDS011;26233;51.894;10.192;2023-06-22T08:04:16;8.38;;;7.68;;
40533;SDS011;26233;51.894;10.192;2023-06-22T08:06:43;8.95;;;8.30;;
40533;SDS011;26233;51.894;10.192;2023-06-22T08:09:10;8.35;;;7.75;;
40533;SDS011;26233;51.894;10.192;2023-06-22T08:11:37;8.40;;;7.72;;
40533;SDS011;26233;51.894;10.192;2023-06-22T08:14:04;8.07;;;7.47;;
40533;SDS011;26233;51.894;10.192;2023-06-22T08:16:33;8.07;;;7.35;;
40533;SDS011;26233;51.894;10.192;2023-06-22T08:19:00;8.00;;;7.38;;
40533;SDS011;26233;51.894;10.192;2023-06-22T08:21:27;8.70;;;8.00;;
40533;SDS011;26233;51.894;10.192;2023-06-22T08:23:54;8.15;;;7.55;;
40533;SDS011;26233;51.894;10.192;2023-06-22T08:26:21;8.48;;;7.78;;
40533;SDS011;26233;51.894;10.192;2023-06-22T08:28:48;7.80;;;7.20;;
40533;SDS011;26233;51.894;10.192;2023-06-22T08:31:15;8.52;;;7.93;;
40533;SDS011;26233;51.894;10.192;2023-06-22T08:33:44;8.55;;;7.95;;
40533;SDS011;26233;51.894;10.192;2023-06-22T08:36:11;8.98;;;8.07;;
40533;SDS011;26233;51.894;10.192;2023-06-22T08:38:39;8.23;;;7.53;;
40533;SDS011;26233;51.894;10.192;2023-06-22T08:41:06;8.82;;;8.15;;
40533;SDS011;26233;51.894;10.192;2023-06-22T08:43:33;8.57;;;7.47;;
40533;SDS011;26233;51.894;10.192;2023-06-22T08:46:00;8.32;;;7.65;;
40533;SDS011;26233;51.894;10.192;2023-06-22T08:48:27;8.35;;;7.65;;
40533;SDS011;26233;51.894;10.192;2023-06-22T08:50:57;8.07;;;7.43;;
40533;SDS011;26233;51.894;10.192;2023-06-22T08:53:24;8.18;;;7.57;;
40533;SDS011;26233;51.894;10.192;2023-06-22T08:55:51;8.13;;;7.43;;
40533;SDS011;26233;51.894;10.192;2023-06-22T08:58:18;8.57;;;7.88;;
40533;SDS011;26233;51.894;10.192;2023-06-22T09:00:46;8.15;;;7.53;;
40533;SDS011;26233;51.894;10.192;2023-06-22T09:03:13;7.57;;;7.07;;
40533;SDS011;26233;51.894;10.192;2023-06-22T09:05:40;8.50;;;7.63;;
40533;SDS011;26233;51.894;10.192;2023-06-22T09:08:08;8.32;;;7.72;;
40533;SDS011;26233;51.894;10.192;2023-06-22T09:10:36;9.40;;;8.73;;
40533;SDS011;26233;51.894;10.192;2023-06-22T09:13:03;7.90;;;7.30;;
40533;SDS011;26233;51.894;10.192;2023-06-22T09:15:31;8.88;;;8.27;;
40533;SDS011;26233;51.894;10.192;2023-06-22T09:17:59;8.65;;;7.97;;
40533;SDS011;26233;51.894;10.192;2023-06-22T09:20:26;8.52;;;7.85;;
40533;SDS011;26233;51.894;10.192;2023-06-22T09:22:53;9.25;;;8.50;;
40533;SDS011;26233;51.894;10.192;2023-06-22T09:25:22;9.07;;;8.38;;
40533;SDS011;26233;51.894;10.192;2023-06-22T09:27:49;7.82;;;7.30;;
40533;SDS011;26233;51.894;10.192;2023-06-22T09:30:16;9.65;;;8.95;;
40533;SDS011;26233;51.894;10.192;2023-06-22T09:32:43;9.30;;;8.60;;
40533;SDS011;26233;51.894;10.192;2023-06-22T09:35:10;8.52;;;7.93;;
40533;SDS011;26233;51.894;10.192;2023-06-22T09:37:38;9.35;;;8.65;;
40533;SDS011;26233;51.894;10.192;2023-06-22T09:40:06;8.80;;;8.10;;
40533;SDS011;26233;51.894;10.192;2023-06-22T09:42:37;8.68;;;7.97;;
40533;SDS011;26233;51.894;10.192;2023-06-22T09:45:05;9.52;;;8.82;;
40533;SDS011;26233;51.894;10.192;2023-06-22T09:47:33;9.90;;;9.10;;
40533;SDS011;26233;51.894;10.192;2023-06-22T09:50:00;8.98;;;8.38;;
40533;SDS011;26233;51.894;10.192;2023-06-22T09:52:27;9.18;;;8.48;;
40533;SDS011;26233;51.894;10.192;2023-06-22T09:54:54;9.15;;;8.45;;
40533;SDS011;26233;51.894;10.192;2023-06-22T09:57:21;9.55;;;8.85;;
40533;SDS011;26233;51.894;10.192;2023-06-22T09:59:49;8.63;;;7.88;;
40533;SDS011;26233;51.894;10.192;2023-06-22T10:02:16;9.52;;;8.82;;
40533;SDS011;26233;51.894;10.192;2023-06-22T10:04:43;9.38;;;8.68;;
40533;SDS011;26233;51.894;10.192;2023-06-22T10:07:10;8.98;;;8.18;;
40533;SDS011;26233;51.894;10.192;2023-06-22T10:09:38;8.15;;;7.55;;
40533;SDS011;26233;51.894;10.192;2023-06-22T10:12:05;8.40;;;7.80;;
40533;SDS011;26233;51.894;10.192;2023-06-22T10:14:33;8.45;;;7.65;;
40533;SDS011;26233;51.894;10.192;2023-06-22T10:17:02;8.77;;;8.18;;
40533;SDS011;26233;51.894;10.192;2023-06-22T10:19:33;8.23;;;7.63;;
40533;SDS011;26233;51.894;10.192;2023-06-22T10:22:02;8.40;;;7.80;;
40533;SDS011;26233;51.894;10.192;2023-06-22T10:24:30;9.23;;;8.63;;
40533;SDS011;26233;51.894;10.192;2023-06-22T10:26:57;10.13;;;9.43;;
40533;SDS011;26233;51.894;10.192;2023-06-22T10:29:25;8.90;;;8.30;;
40533;SDS011;26233;51.894;10.192;2023-06-22T10:31:52;8.35;;;7.85;;
40533;SDS011;26233;51.894;10.192;2023-06-22T10:34:20;8.27;;;7.75;;
40533;SDS011;26233;51.894;10.192;2023-06-22T10:36:47;8.68;;;7.97;;
40533;SDS011;26233;51.894;10.192;2023-06-22T10:39:14;8.57;;;7.90;;
40533;SDS011;26233;51.894;10.192;2023-06-22T10:41:41;7.93;;;7.20;;
40533;SDS011;26233;51.894;10.192;2023-06-22T10:44:08;8.48;;;7.88;;
40533;SDS011;26233;51.894;10.192;2023-06-22T10:46:35;8.45;;;7.82;;
40533;SDS011;26233;51.894;10.192;2023-06-22T10:49:02;8.75;;;8.15;;
40533;SDS011;26233;51.894;10.192;2023-06-22T10:51:31;8.32;;;7.82;;
40533;SDS011;26233;51.894;10.192;2023-06-22T10:53:58;9.05;;;8.35;;
40533;SDS011;26233;51.894;10.192;2023-06-22T10:56:25;8.82;;;8.20;;
40533;SDS011;26233;51.894;10.192;2023-06-22T10:58:52;9.77;;;9.07;;
40533;SDS011;26233;51.894;10.192;2023-06-22T11:01:20;9.05;;;8.45;;
40533;SDS011;26233;51.894;10.192;2023-06-22T11:03:47;8.43;;;7.88;;
40533;SDS011;26233;51.894;10.192;2023-06-22T11:06:14;9.18;;;8.48;;
40533;SDS011;26233;51.894;10.192;2023-06-22T11:08:44;8.50;;;7.97;;
40533;SDS011;26233;51.894;10.192;2023-06-22T11:11:11;8.85;;;8.25;;
40533;SDS011;26233;51.894;10.192;2023-06-22T11:13:38;9.15;;;8.55;;
40533;SDS011;26233;51.894;10.192;2023-06-22T11:16:05;8.95;;;8.35;;
40533;SDS011;26233;51.894;10.192;2023-06-22T11:18:32;9.25;;;8.65;;
40533;SDS011;26233;51.894;10.192;2023-06-22T11:20:59;10.10;;;9.40;;
40533;SDS011;26233;51.894;10.192;2023-06-22T11:23:26;9.30;;;8.65;;
40533;SDS011;26233;51.894;10.192;2023-06-22T11:25:55;9.60;;;8.93;;
40533;SDS011;26233;51.894;10.192;2023-06-22T11:28:22;9.60;;;8.90;;
40533;SDS011;26233;51.894;10.192;2023-06-22T11:30:49;9.63;;;8.93;;
40533;SDS011;26233;51.894;10.192;2023-06-22T11:33:16;9.80;;;8.80;;
40533;SDS011;26233;51.894;10.192;2023-06-22T11:35:43;9.98;;;9.32;;
40533;SDS011;26233;51.894;10.192;2023-06-22T11:38:09;8.40;;;7.78;;
40533;SDS011;26233;51.894;10.192;2023-06-22T11:40:37;9.20;;;8.57;;
40533;SDS011;26233;51.894;10.192;2023-06-22T11:43:05;8.65;;;8.05;;
40533;SDS011;26233;51.894;10.192;2023-06-22T11:45:32;9.15;;;8.55;;
40533;SDS011;26233;51.894;10.192;2023-06-22T11:47:59;9.30;;;8.65;;
40533;SDS011;26233;51.894;10.192;2023-06-22T11:50:26;8.43;;;7.82;;
40533;SDS011;26233;51.894;10.192;2023-06-22T11:52:55;8.30;;;7.70;;
40533;SDS011;26233;51.894;10.192;2023-06-22T11:55:22;9.02;;;8.27;;
40533;SDS011;26233;51.894;10.192;2023-06-22T11:57:53;9.18;;;8.57;;
40533;SDS011;26233;51.894;10.192;2023-06-22T12:00:25;8.30;;;7.70;;
40533;SDS011;26233;51.894;10.192;2023-06-22T12:02:52;8.30;;;7.72;;
40533;SDS011;26233;51.894;10.192;2023-06-22T12:05:19;8.02;;;7.53;;
40533;SDS011;26233;51.894;10.192;2023-06-22T12:07:47;8.10;;;7.60;;
40533;SDS011;26233;51.894;10.192;2023-06-22T12:10:14;7.72;;;7.13;;
40533;SDS011;26233;51.894;10.192;2023-06-22T12:12:41;8.57;;;7.90;;
40533;SDS011;26233;51.894;10.192;2023-06-22T12:15:09;8.35;;;7.55;;
40533;SDS011;26233;51.894;10.192;2023-06-22T12:17:38;8.00;;;7.40;;
40533;SDS011;26233;51.894;10.192;2023-06-22T12:20:06;8.43;;;7.82;;
40533;SDS011;26233;51.894;10.192;2023-06-22T12:22:34;8.18;;;7.57;;
40533;SDS011;26233;51.894;10.192;2023-06-22T12:25:05;9.07;;;8.38;;
40533;SDS011;26233;51.894;10.192;2023-06-22T12:27:33;8.57;;;7.97;;
40533;SDS011;26233;51.894;10.192;2023-06-22T12:30:00;8.75;;;8.10;;
40533;SDS011;26233;51.894;10.192;2023-06-22T12:32:27;8.05;;;7.55;;
40533;SDS011;26233;51.894;10.192;2023-06-22T12:34:56;8.25;;;7.75;;
40533;SDS011;26233;51.894;10.192;2023-06-22T12:37:23;8.68;;;8.07;;
40533;SDS011;26233;51.894;10.192;2023-06-22T12:39:50;8.27;;;7.68;;
40533;SDS011;26233;51.894;10.192;2023-06-22T12:42:17;8.10;;;7.50;;
40533;SDS011;26233;51.894;10.192;2023-06-22T12:44:46;8.63;;;7.93;;
40533;SDS011;26233;51.894;10.192;2023-06-22T12:47:13;8.30;;;7.80;;
40533;SDS011;26233;51.894;10.192;2023-06-22T12:49:40;8.93;;;8.32;;
40533;SDS011;26233;51.894;10.192;2023-06-22T12:52:11;8.25;;;7.55;;
40533;SDS011;26233;51.894;10.192;2023-06-22T12:54:38;8.13;;;7.63;;
40533;SDS011;26233;51.894;10.192;2023-06-22T12:57:05;8.35;;;7.75;;
40533;SDS011;26233;51.894;10.192;2023-06-22T12:59:33;8.00;;;7.50;;
40533;SDS011;26233;51.894;10.192;2023-06-22T13:01:59;8.00;;;7.40;;
40533;SDS011;26233;51.894;10.192;2023-06-22T13:04:26;8.70;;;8.10;;
40533;SDS011;26233;51.894;10.192;2023-06-22T13:06:53;8.35;;;7.75;;
40533;SDS011;26233;51.894;10.192;2023-06-22T13:09:22;8.15;;;7.55;;
40533;SDS011;26233;51.894;10.192;2023-06-22T13:11:49;8.70;;;8.10;;
40533;SDS011;26233;51.894;10.192;2023-06-22T13:14:17;8.75;;;8.15;;
40533;SDS011;26233;51.894;10.192;2023-06-22T13:16:44;8.52;;;8.00;;
40533;SDS011;26233;51.894;10.192;2023-06-22T13:19:11;8.20;;;7.50;;
40533;SDS011;26233;51.894;10.192;2023-06-22T13:21:38;9.05;;;8.45;;
40533;SDS011;26233;51.894;10.192;2023-06-22T13:24:06;8.27;;;7.68;;
40533;SDS011;26233;51.894;10.192;2023-06-22T13:26:34;8.73;;;8.13;;
40533;SDS011;26233;51.894;10.192;2023-06-22T13:29:01;8.85;;;8.25;;
40533;SDS011;26233;51.894;10.192;2023-06-22T13:31:28;7.82;;;7.28;;
40533;SDS011;26233;51.894;10.192;2023-06-22T13:33:55;7.85;;;7.35;;
40533;SDS011;26233;51.894;10.192;2023-06-22T13:36:22;8.60;;;8.00;;
40533;SDS011;26233;51.894;10.192;2023-06-22T13:38:49;8.95;;;8.35;;
40533;SDS011;26233;51.894;10.192;2023-06-22T13:41:16;7.88;;;7.30;;
40533;SDS011;26233;51.894;10.192;2023-06-22T13:43:45;8.57;;;7.97;;
40533;SDS011;26233;51.894;10.192;2023-06-22T13:46:12;8.25;;;7.75;;
40533;SDS011;26233;51.894;10.192;2023-06-22T13:48:39;8.30;;;7.70;;
40533;SDS011;26233;51.894;10.192;2023-06-22T13:51:06;8.57;;;7.97;;
40533;SDS011;26233;51.894;10.192;2023-06-22T13:53:33;7.95;;;7.38;;
40533;SDS011;26233;51.894;10.192;2023-06-22T13:56:00;8.50;;;7.90;;
40533;SDS011;26233;51.894;10.192;2023-06-22T13:58:27;7.82;;;7.32;;
40533;SDS011;26233;51.894;10.192;2023-06-22T14:00:55;8.32;;;7.78;;
40533;SDS011;26233;51.894;10.192;2023-06-22T14:03:23;8.68;;;8.00;;
40533;SDS011;26233;51.894;10.192;2023-06-22T14:05:50;7.72;;;7.22;;
40533;SDS011;26233;51.894;10.192;2023-06-22T14:08:19;7.65;;;7.15;;
40533;SDS011;26233;51.894;10.192;2023-06-22T14:10:48;7.60;;;7.00;;
40533;SDS011;26233;51.894;10.192;2023-06-22T14:13:15;7.93;;;7.32;;
40533;SDS011;26233;51.894;10.192;2023-06-22T14:15:42;8.68;;;8.10;;
40533;SDS011;26233;51.894;10.192;2023-06-22T14:18:11;8.43;;;7.82;;
40533;SDS011;26233;51.894;10.192;2023-06-22T14:20:38;8.00;;;7.47;;
40533;SDS011;26233;51.894;10.192;2023-06-22T14:23:05;8.45;;;7.63;;
40533;SDS011;26233;51.894;10.192;2023-06-22T14:25:32;8.20;;;7.60;;
40533;SDS011;26233;51.894;10.192;2023-06-22T14:27:59;8.18;;;7.50;;
40533;SDS011;26233;51.894;10.192;2023-06-22T14:30:26;8.82;;;8.23;;
40533;SDS011;26233;51.894;10.192;2023-06-22T14:32:53;8.95;;;8.35;;
40533;SDS011;26233;51.894;10.192;2023-06-22T14:35:21;8.80;;;8.15;;
40533;SDS011;26233;51.894;10.192;2023-06-22T14:37:49;8.95;;;8.15;;